الصفحة الرئيسية
METAR-TAF:

METAR-TAF

مطار :

مطار شانغهاي بودنغ الدولي

شانغهاي-Pudong, جمهورية الصين الشعبية

دائرة عرض: 31-07N, خط طول: 121-46E, ارتفاع: 4 متر

مراقبة الطقس الحالي

تاريخ ووقت الإصدار 36 دقيقة قبل الساعة 00:30UTC
ريح 8 عقدة من الشرق/الجنوب الشرقي
درجة الحرارة 24°درجة مئوية
الرطوبة 83%
ضغط 1009 hPa
الرؤية 10 كم أو أكثر
ملبد بالغيوم على ارتفاع 1300 قدم

METAR: ZSPD 240030Z 12004MPS 9999 OVC013 24/21 Q1009 NOSIG

زمن: 09:06 (01:06 UTC)

توقعات

تاريخ ووقت الإصدار 3ساعات و 49 دقيقة قبل الساعة 21:17UTC
التوقعات صالحة من24 الساعة 00 UTC إلى 24 الساعة 24 UTC
ريح 8 عقدة من الشرق/الجنوب الشرقي
الرؤية: 6000 متر
غيوم مفككة على ارتفاع 1000 قدم

TAF: ZSPD 232117Z 2400/2424 12004MPS 6000 BKN010 TX26/2406Z TN22/2421Z

أرصاد الطقس والتوقعات من أكثر من 4000 مطار (تقارير الطقس للمطار METAR والتنبؤ بالطقس بالمطارTAF).

المحطات المتاحة هي النقط الصفراء والحمراء على الخريطة.

حرك المؤشر فوق النقطة لمعرفة اسم المحطة.

ثم انقر لمعرفة أرصاد وتوقعات الطقس.

لتغيير الخارطة: اضغط على الأزرار الخضراء مع رمز الصليب الأسود للتكبير. على الزر الأخضر مع شرطة للتصغير، أو على الأسهم الخضراء للخرائط المجاورة.


METAR-TAF: